Latest Weather Observations for Cape Byron

IDN60801

Issued at 11:35 pm EST Sunday 21 September 2014 (issued every 30 minutes, with the page automatically refreshed every 10 minutes)

About weather observations | Map of weather stations | Latest weather observations for NSW | Other Formats
Station Details ID: 058216 Name: CAPE BYRON AWS Lat: -28.64 Lon: 153.64 Height: 95.0 m
Data from the previous 72 hours. | See also: Recent months at Cape Byron
Date/Time
EST
Temp
°C
App
Temp
°C
Dew
Point
Rel
Hum
%
Delta-T
°C
Wind Press
QNH
hPa
Press
MSL
hPa
Rain
since 9 am
mm
Dir
 
Spd
km/h
Gust
km/h
Spd
kts
Gust
kts
21/11:30pm 17.7 10.9 9.3 58 4.4 ESE 35 41 19 22 1027.9 1027.6 9.6
21/11:00pm 17.6 10.9 9.5 59 4.2 ESE 35 39 19 21 1028.2 1027.9 9.6
21/10:30pm 17.6 11.3 9.8 60 4.1 ESE 33 43 18 23 1028.3 1028.0 9.6
21/10:00pm 17.7 10.4 10.1 61 4.0 ESE 39 46 21 25 1028.2 1027.9 9.6
21/09:30pm 17.8 10.6 10.7 63 3.8 SE 39 48 21 26 1028.1 1027.8 9.6
21/09:18pm 17.7 11.0 11.0 65 3.6 E 37 43 20 23 1028.1 1027.8 9.6
21/09:00pm 17.6 11.5 11.6 68 3.3 SE 35 48 19 26 1028.2 1027.9 9.6
21/08:30pm 17.8 11.4 10.7 63 3.8 SE 35 43 19 23 1028.2 1027.9 9.6
21/08:00pm 17.8 11.1 10.9 64 3.7 ESE 37 46 20 25 1028.2 1027.9 9.6
21/07:30pm 17.8 10.4 11.1 65 3.6 ESE 41 50 22 27 1027.6 1027.3 9.6
21/07:00pm 17.7 10.3 11.3 66 3.5 ESE 41 52 22 28 1027.1 1026.8 9.6
21/06:30pm 17.8 10.1 11.4 66 3.5 SE 43 52 23 28 1026.6 1026.4 9.6
21/06:20pm 17.8 11.1 10.9 64 3.7 SE 37 50 20 27 1026.6 1026.4 9.6
21/06:00pm 16.6 12.2 12.8 78 2.1 ESE 28 35 15 19 1026.6 1026.4 9.6
21/05:30pm 16.5 11.1 12.3 76 2.3 SSW 32 43 17 23 1026.4 1026.2 9.6
21/05:00pm 17.3 12.5 12.8 75 2.5 S 30 39 16 21 1026.2 1026.0 9.6
21/04:30pm 16.8 10.7 12.9 78 2.2 S 37 46 20 25 1026.2 1026.0 9.6
21/04:00pm 16.9 9.7 13.2 79 2.1 S 43 52 23 28 1026.1 1025.9 9.6
21/03:30pm 17.5 10.5 13.8 79 2.1 SSW 43 54 23 29 1025.7 1025.5 9.6
21/03:00pm 17.7 10.8 12.8 73 2.7 S 41 46 22 25 1025.6 1025.4 9.6
21/02:30pm 17.3 11.7 13.2 77 2.3 S 35 43 19 23 1025.3 1025.1 9.6
21/02:00pm 16.3 10.5 14.0 86 1.3 S 37 44 20 24 1025.5 1025.3 9.6
21/01:49pm 16.7 11.1 14.5 87 1.3 S 37 43 20 23 1025.6 1025.4 9.6
21/01:38pm 16.8 13.0 14.8 88 1.2 SE 28 46 15 25 1025.5 1025.3 9.6
21/01:34pm 16.8 13.5 15.0 89 1.0 SSE 26 37 14 20 1025.6 1025.4 9.6
21/01:30pm 16.3 10.7 14.5 89 1.0 S 37 43 20 23 1025.8 1025.6 9.6
21/01:00pm 14.9 8.7 11.5 80 1.8 SSW 35 57 19 31 1026.1 1025.9 0.4
21/12:59pm 14.8 8.4 10.6 76 2.2 SSW 35 57 19 31 1026.2 1026.0 0.2
21/12:30pm 17.3 12.0 12.4 73 2.7 S 32 39 17 21 1026.3 1026.1 0.0
21/12:00pm 18.0 12.5 13.5 75 2.5 S 35 41 19 22 1026.5 1026.3 0.0
21/11:30am 18.5 12.3 13.8 74 2.7 SSW 39 48 21 26 1026.4 1026.2 0.0
21/11:00am 17.9 11.8 13.0 73 2.7 S 37 43 20 23 1027.0 1026.7 0.0
21/10:30am 18.6 13.7 12.4 67 3.5 SSW 30 39 16 21 1027.3 1027.0 0.0
21/10:00am 18.2 14.5 11.5 65 3.7 SSW 22 30 12 16 1027.7 1027.4 0.0
21/09:30am 17.8 13.6 12.3 70 3.1 SSW 26 33 14 18 1027.8 1027.5 0.0
21/09:00am 16.9 13.2 11.6 71 2.9 SW 22 35 12 19 1027.6 1027.3 0.0
21/08:30am 15.6 11.3 10.6 72 2.6 SW 24 35 13 19 1027.5 1027.2 0.0
21/08:00am 14.3 9.3 9.5 73 2.5 WSW 26 33 14 18 1027.2 1026.9 0.0
21/07:30am 14.0 8.1 9.2 73 2.5 WSW 30 41 16 22 1027.0 1026.7 0.0
21/07:00am 13.3 8.1 9.0 75 2.2 WSW 26 33 14 18 1026.5 1026.3 0.0
21/06:30am 13.2 7.7 9.1 76 2.1 WSW 28 37 15 20 1026.3 1026.1 0.0
21/06:00am 12.7 6.8 9.0 78 1.9 WSW 30 37 16 20 1025.8 1025.6 0.0
21/05:30am 12.6 7.1 9.1 79 1.8 SW 28 35 15 19 1025.4 1025.2 0.0
21/05:00am 12.8 7.7 9.3 79 1.8 WSW 26 33 14 18 1025.6 1025.4 0.0
21/04:30am 13.4 8.8 9.8 79 1.9 SW 24 30 13 16 1024.9 1024.7 0.0
21/04:00am 13.2 8.2 9.5 78 1.9 SW 26 33 14 18 1024.7 1024.5 0.0
21/03:30am 13.5 7.7 9.4 76 2.1 SW 30 35 16 19 1024.5 1024.3 0.0
21/03:00am 13.4 7.5 8.9 74 2.3 SW 30 35 16 19 1024.2 1024.0 0.0
21/02:30am 13.4 7.4 8.7 73 2.4 WSW 30 35 16 19 1024.6 1024.4 0.0
21/02:00am 14.2 9.7 8.6 69 2.8 SW 22 26 12 14 1025.0 1024.8 0.0
21/01:30am 14.4 9.9 8.6 68 2.9 SW 22 26 12 14 1025.2 1025.0 0.0
21/01:00am 14.8 10.7 8.7 67 3.1 SW 20 26 11 14 1025.2 1025.0 0.0
21/12:30am 14.9 10.7 8.4 65 3.3 SW 20 26 11 14 1025.4 1025.2 0.0
21/12:00am 15.6 11.4 8.4 62 3.6 SW 20 24 11 13 1025.4 1025.2 0.0
 
Date/Time
EST
Temp
°C
App
Temp
°C
Dew
Point
Rel
Hum
%
Delta-T
°C
Wind Press
QNH
hPa
Press
MSL
hPa
Rain
since 9 am
mm
Dir
 
Spd
km/h
Gust
km/h
Spd
kts
Gust
kts
20/11:30pm 17.8 13.8 8.9 56 4.6 S 20 26 11 14 1025.5 1025.3 0.0
20/11:00pm 17.8 13.3 8.6 55 4.7 SE 22 30 12 16 1025.6 1025.4 0.0
20/10:30pm 17.8 12.8 8.1 53 5.0 SE 24 33 13 18 1025.7 1025.5 0.0
20/10:00pm 17.7 12.9 8.8 56 4.6 SE 24 32 13 17 1025.6 1025.4 0.0
20/09:30pm 17.8 12.4 7.8 52 5.1 ESE 26 32 14 17 1025.4 1025.2 0.0
20/09:00pm 17.8 12.4 7.8 52 5.1 SE 26 32 14 17 1025.2 1025.0 0.0
20/08:30pm 17.9 12.7 9.0 56 4.6 SE 26 35 14 19 1024.8 1024.6 0.0
20/08:00pm 17.9 11.5 8.7 55 4.8 ESE 32 37 17 20 1024.4 1024.2 0.0
20/07:30pm 17.9 11.5 8.5 54 4.9 ESE 32 37 17 20 1024.1 1023.9 0.0
20/07:00pm 18.0 12.2 9.4 57 4.5 SE 30 39 16 21 1023.7 1023.5 0.0
20/06:30pm 18.0 12.4 8.8 55 4.8 SE 28 37 15 20 1023.3 1023.1 0.0
20/06:00pm 18.0 12.4 10.1 60 4.2 SE 30 37 16 20 1022.7 1022.5 0.0
20/05:30pm 18.2 12.6 10.3 60 4.2 SE 30 39 16 21 1022.2 1022.0 0.0
20/05:00pm 18.5 13.1 9.6 56 4.7 SE 28 35 15 19 1021.7 1021.5 0.0
20/04:30pm 18.7 13.8 9.8 56 4.7 SE 26 35 14 19 1021.2 1021.0 0.0
20/04:00pm 18.6 12.3 9.1 54 5.0 SE 32 39 17 21 1021.0 1020.8 0.0
20/03:30pm 18.8 13.7 9.3 54 5.0 SE 26 37 14 20 1020.8 1020.6 0.0
20/03:00pm 18.9 13.4 9.1 53 5.1 SE 28 35 15 19 1020.6 1020.3 0.0
20/02:30pm 19.0 13.7 10.0 56 4.8 SE 28 37 15 20 1020.6 1020.3 0.0
20/02:00pm 18.8 14.2 9.6 55 4.9 SSE 24 32 13 17 1020.7 1020.4 0.0
20/01:30pm 18.6 13.6 9.4 55 4.9 SSE 26 33 14 18 1020.9 1020.7 0.0
20/01:00pm 18.7 13.2 9.2 54 5.0 ESE 28 32 15 17 1021.2 1021.0 0.0
20/12:30pm 18.7 14.7 8.9 53 5.1 E 20 30 11 16 1021.6 1021.4 0.0
20/12:00pm 19.1 15.2 8.7 51 5.4 ESE 19 26 10 14 1021.8 1021.6 0.0
20/11:30am 19.3 16.1 9.8 54 5.1 SE 17 22 9 12 1022.3 1022.1 0.0
20/11:00am 19.8 17.1 10.2 54 5.2 SE 15 22 8 12 1022.6 1022.4 0.0
20/10:30am 19.3 16.7 10.6 57 4.7 SSE 15 20 8 11 1022.7 1022.5 0.0
20/10:00am 19.0 16.4 10.8 59 4.4 SSE 15 19 8 10 1023.0 1022.8 0.0
20/09:30am 18.5 15.9 10.8 61 4.2 SSE 15 20 8 11 1023.1 1022.9 0.0
20/09:00am 17.5 14.2 10.9 65 3.6 SSE 19 24 10 13 1023.1 1022.9 2.0
20/08:30am 16.7 13.0 11.4 71 2.9 ESE 22 30 12 16 1023.0 1022.8 2.0
20/08:00am 15.7 12.2 12.3 80 1.9 E 22 28 12 15 1022.7 1022.5 2.0
20/07:30am 15.5 12.0 12.3 81 1.8 E 22 30 12 16 1022.4 1022.2 2.0
20/07:00am 15.4 12.6 12.5 83 1.6 E 19 28 10 15 1022.1 1021.9 1.8
20/06:30am 15.3 11.6 12.6 84 1.5 E 24 39 13 21 1021.7 1021.5 1.6
20/06:00am 15.6 10.3 12.5 82 1.7 E 32 43 17 23 1020.8 1020.6 1.2
20/05:49am 16.5 11.1 12.3 76 2.3 E 32 50 17 27 1020.8 1020.6 0.0
20/05:30am 16.4 10.0 12.0 75 2.4 ESE 37 46 20 25 1020.1 1019.8 0.0
20/05:22am 16.6 10.6 12.2 75 2.4 E 35 43 19 23 1020.0 1019.7 0.0
20/05:00am 16.8 10.0 11.9 73 2.7 SE 39 48 21 26 1019.9 1019.6 0.0
20/04:30am 16.9 10.6 12.4 75 2.5 SE 37 46 20 25 1019.6 1019.3 0.0
20/04:00am 16.8 11.9 12.5 76 2.4 SE 30 48 16 26 1019.4 1019.1 0.0
20/03:30am 16.6 11.8 12.9 79 2.1 S 30 39 16 21 1019.4 1019.1 0.0
20/03:00am 16.5 11.5 13.4 82 1.7 S 32 37 17 20 1019.5 1019.2 0.0
20/02:30am 15.1 10.6 12.6 85 1.4 SW 28 35 15 19 1019.5 1019.2 0.0
20/02:00am 15.2 11.3 12.0 81 1.7 SW 24 33 13 18 1019.6 1019.3 0.0
20/01:30am 15.9 12.9 12.1 78 2.1 SW 19 22 10 12 1019.5 1019.2 0.0
20/01:00am 17.4 17.0 13.1 76 2.4 NNW 7 15 4 8 1019.2 1018.9 0.0
20/12:30am 17.5 15.7 13.2 76 2.4 N 15 20 8 11 1019.5 1019.2 0.0
20/12:00am 17.4 15.0 12.5 73 2.7 N 17 22 9 12 1019.5 1019.2 0.0
 
Date/Time
EST
Temp
°C
App
Temp
°C
Dew
Point
Rel
Hum
%
Delta-T
°C
Wind Press
QNH
hPa
Press
MSL
hPa
Rain
since 9 am
mm
Dir
 
Spd
km/h
Gust
km/h
Spd
kts
Gust
kts
19/11:30pm 17.6 14.5 12.3 71 2.9 N 20 32 11 17 1019.3 1019.0 0.0
19/11:00pm 18.1 15.2 12.3 69 3.2 NNE 19 26 10 14 1019.5 1019.2 0.0
19/10:30pm 17.8 15.3 12.3 70 3.1 N 17 24 9 13 1019.6 1019.3 0.0
19/10:00pm 19.0 15.8 13.2 69 3.3 NNE 22 33 12 18 1019.9 1019.6 0.0
19/09:30pm 19.1 16.3 13.3 69 3.3 NNE 20 30 11 16 1019.9 1019.6 0.0
19/09:00pm 19.1 16.2 12.8 67 3.5 NE 20 32 11 17 1019.8 1019.5 0.0
19/08:30pm 19.1 15.4 12.8 67 3.6 NE 24 32 13 17 1020.1 1019.8 0.0
19/08:00pm 19.1 15.9 11.9 63 4.0 NE 20 30 11 16 1019.9 1019.6 0.0
19/07:30pm 19.2 15.6 10.7 58 4.6 NE 20 30 11 16 1019.6 1019.3 0.0
19/07:00pm 19.2 13.9 11.3 60 4.3 NE 30 33 16 18 1019.3 1019.0 0.0
19/06:30pm 19.0 14.1 11.3 61 4.2 NE 28 33 15 18 1018.8 1018.5 0.0
19/06:00pm 19.1 14.5 11.2 60 4.3 NE 26 32 14 17 1018.4 1018.1 0.0
19/05:30pm 19.4 14.5 11.2 59 4.5 NNE 28 35 15 19 1018.0 1017.7 0.0
19/05:00pm 20.1 16.0 10.2 53 5.3 NE 22 30 12 16 1017.9 1017.6 0.0
19/04:30pm 20.6 16.2 10.4 52 5.6 NE 24 30 13 16 1017.8 1017.5 0.0
19/04:00pm 21.3 17.2 10.2 49 6.0 NE 22 26 12 14 1017.5 1017.2 0.0
19/03:30pm 22.6 19.2 11.4 49 6.3 ENE 20 26 11 14 1017.5 1017.2 0.0
19/03:00pm 22.5 20.2 13.0 55 5.5 E 17 26 9 14 1017.5 1017.2 0.0
19/02:30pm 22.2 20.7 14.3 61 4.6 ENE 15 20 8 11 1018.0 1017.7 0.0
19/02:00pm 21.8 19.5 14.2 62 4.4 E 19 26 10 14 1018.3 1018.0 0.0
19/01:30pm 22.7 20.5 14.5 60 4.8 E 19 22 10 12 1018.8 1018.5 0.0
19/01:00pm 21.6 19.6 13.8 61 4.5 E 17 20 9 11 1019.2 1018.9 0.0
19/12:30pm 21.5 19.1 13.7 61 4.5 E 19 22 10 12 1019.7 1019.4 0.0
19/12:00pm 20.6 18.3 13.1 62 4.3 E 17 24 9 13 1020.1 1019.8 0.0
19/11:30am 20.6 18.2 12.8 61 4.4 E 17 20 9 11 1020.5 1020.2 0.0
19/11:00am 20.3 18.0 11.8 58 4.7 ENE 15 17 8 9 1021.0 1020.8 0.0
19/10:30am 20.7 18.7 11.6 56 5.1 ENE 13 17 7 9 1021.3 1021.1 0.0
19/10:00am 19.8 18.4 10.8 56 4.9 SE 9 13 5 7 1021.7 1021.5 0.0
19/09:30am 18.9 17.4 10.5 58 4.5 S 9 11 5 6 1022.1 1021.9 0.0
19/09:00am 18.1 16.4 9.7 58 4.4 SSW 9 13 5 7 1022.2 1022.0 0.0
19/08:30am 17.1 14.0 9.0 59 4.2 WSW 15 17 8 9 1022.1 1021.9 0.0
19/08:00am 15.9 12.7 8.4 61 3.8 WSW 15 20 8 11 1021.9 1021.7 0.0
19/07:30am 15.4 12.5 8.2 62 3.6 WSW 13 19 7 10 1021.8 1021.6 0.0
19/07:00am 14.8 11.8 7.8 63 3.5 WSW 13 19 7 10 1021.4 1021.2 0.0
19/06:30am 15.1 12.7 8.6 65 3.3 WSW 11 15 6 8 1021.1 1020.9 0.0
19/06:00am 14.4 10.1 7.9 65 3.2 WSW 20 24 11 13 1020.8 1020.6 0.0
19/05:30am 13.8 9.0 7.3 65 3.2 WSW 22 28 12 15 1020.6 1020.3 0.0
19/05:00am 14.0 9.2 7.5 65 3.2 WSW 22 26 12 14 1020.2 1019.9 0.0
19/04:30am 14.5 10.1 7.5 63 3.5 WSW 20 26 11 14 1020.0 1019.7 0.0
19/04:00am 14.7 11.3 7.7 63 3.5 WSW 15 20 8 11 1019.7 1019.4 0.0
19/03:30am 14.9 11.1 7.7 62 3.6 WSW 17 19 9 10 1019.5 1019.2 0.0
19/03:00am 15.0 12.0 7.8 62 3.6 WSW 13 17 7 9 1019.5 1019.2 0.0
19/02:30am 15.7 13.2 8.4 62 3.7 SW 11 13 6 7 1019.7 1019.4 0.0
19/02:00am 16.3 14.3 8.8 61 3.9 SSW 9 11 5 6 1019.8 1019.5 0.0
19/01:30am 16.6 15.2 8.8 60 4.0 S 6 9 3 5 1020.2 1019.9 0.0
19/01:00am 16.4 15.1 9.1 62 3.8 E 6 7 3 4 1020.3 1020.0 0.0
19/12:30am 16.6 15.1 8.6 59 4.1 E 6 9 3 5 1020.5 1020.2 0.0
19/12:00am 17.1 15.4 8.3 56 4.5 SE 7 9 4 5 1020.7 1020.4 0.0

Other Formats:

Comma delimited format used in spreadsheet applications
http://www.bom.gov.au/fwo/IDN60801/IDN60801.94599.axf

JavaScript Object Notation format (JSON) in row-major order
http://www.bom.gov.au/fwo/IDN60801/IDN60801.94599.json